METAR AND TAF INFORMATION
METAR FOR LELC
ADDS - METARS form results

(2142 UTC 03 August 2021)
Data provider http://aviationweather.gov/metar/data/
 
METAR text: LELC 032130Z AUTO 22006KT 190V260 CAVOK 24/20 Q1016
Conditions at: LELC (SAN JAVIER(MIL/C, ES) observed 2130 UTC 03 August 2021
Temperature: 24.0°C (75°F)
Dewpoint: 20.0°C (68°F) [RH = 78%]
Pressure (altimeter): 30.00 inches Hg (1016.0 mb)
Winds: from the SW (220 degrees) at 7 MPH (6 knots; 3.1 m/s)
Visibility: 6 or more miles (10+ km)
Ceiling: ceiling and visibility are OK
Clouds: unknown
Weather: no significant weather observed at this time

METAR text: LELC 032100Z 22005KT 190V280 9999 FEW022 24/20 Q1016 NOSIG
Conditions at: LELC (SAN JAVIER(MIL/C, ES) observed 2100 UTC 03 August 2021
Temperature: 24.0°C (75°F)
Dewpoint: 20.0°C (68°F) [RH = 78%]
Pressure (altimeter): 30.00 inches Hg (1016.0 mb)
Winds: from the SW (220 degrees) at 6 MPH (5 knots; 2.6 m/s)
Visibility: 6 or more miles (10+ km)
Ceiling: at least 12,000 feet AGL
Clouds: few clouds at 2200 feet AGL
Weather: no significant weather observed at this time

Forecast for: LELC (SAN JAVIER(MIL/C, ES)
Text: TAF LELC 031700Z 0318/0418 22009KT CAVOK TX32/0414Z TN20/0405Z
Forecast period: 1800 UTC 03 August 2021 to 1800 UTC 04 August 2021
Forecast type: FROM: standard forecast or significant change
Winds: from the SW (220 degrees) at 10 MPH (9 knots; 4.6 m/s)
Visibility: 6 or more miles (10+ km)
Ceiling: unknown
Clouds: missing
Weather: no significant weather forecast for this period

 AIRPORT MAP

 RUNWAY INFORMATION
Runway 05 Runway length 7546 ft Runway width 197 ft
Runway elevation 11 ft Runway displaced threshold 0 ft Runway heading 46
Runway 23 Runway length 7546 ft Runway width 197 ft
Runway elevation 5 ft Runway displaced threshold 0 ft Runway heading 226
Runway 05L Runway length 2867 ft Runway width 197 ft
Runway elevation 0 ft Runway displaced threshold 0 ft Runway heading 46
Runway 23R Runway length 2867 ft Runway width 197 ft
Runway elevation 0 ft Runway displaced threshold 0 ft Runway heading 226
Runway 14 Runway length 2625 ft Runway width 197 ft
Runway elevation 0 ft Runway displaced threshold 0 ft Runway heading 136
Runway 32 Runway length 2625 ft Runway width 197 ft
Runway elevation 0 ft Runway displaced threshold 0 ft Runway heading 316

 AIRPORT FREQUENCIES
Type APP Name SAN JAVIER Frequency 130.3 MHZ
Type GND Name SAN JAVIER Frequency 121.6 MHZ
Type TWR Name SAN JAVIER Frequency 130.3 MHZ

 AIRPORT NEAR NAVIGATION AIDS
Type NDB Name Murcia/San Javier Frequency 381 KHZ
Type NDB Name Murcia/San Javier Frequency 370 KHZ
Type TACAN Name Murcia/San Javier Frequency 113000 KHZ
Type VOR-DME Name Murcia/San Javier Frequency 113000 KHZ





Powered by Virtual Airlines Manager

Maps by Rafael Santos